Time;durP1;ratioP1;P1;durP2;ratioP2;P2;SDS_P1;SDS_P2;PMS_P1;PMS_P2;Temp;Humidity;BMP_temperature;BMP_pressure;BME280_temperature;BME280_humidity;BME280_pressure;Samples;Min_cycle;Max_cycle;Signal;HPM_P1;HPM_P2
2023/08/11 00:00:08;;;;;;;2.63;1.70;;;;;;;18.06;79.91;101417.19;5007973;28;20046;-85
2023/08/11 00:02:38;;;;;;;3.67;1.88;;;;;;;18.03;80.91;101410.19;5014004;28;20056;-86
2023/08/11 00:05:07;;;;;;;6.57;2.22;;;;;;;18.01;80.67;101409.34;4983739;28;20050;-85
2023/08/11 00:07:34;;;;;;;3.33;1.42;;;;;;;17.98;80.77;101405.00;4996486;28;20129;-86
2023/08/11 00:10:01;;;;;;;2.28;1.40;;;;;;;17.99;80.77;101409.41;5021849;28;20045;-86
2023/08/11 00:12:28;;;;;;;5.50;1.98;;;;;;;18.01;80.81;101412.00;5010687;28;20046;-86
2023/08/11 00:14:57;;;;;;;2.63;1.60;;;;;;;18.01;80.78;101407.56;4994089;28;20056;-86
2023/08/11 00:17:23;;;;;;;6.13;2.38;;;;;;;18.00;81.05;101411.16;5008653;28;20037;-85
2023/08/11 00:19:52;;;;;;;2.47;1.45;;;;;;;18.00;81.03;101415.56;5008863;28;20054;-85
2023/08/11 00:22:19;;;;;;;3.28;1.65;;;;;;;18.01;81.17;101412.88;4995899;28;20050;-86
2023/08/11 00:24:48;;;;;;;3.25;1.60;;;;;;;18.02;81.06;101414.59;5008072;28;20599;-85
2023/08/11 00:27:14;;;;;;;3.00;2.00;;;;;;;18.02;81.11;101421.69;4990910;28;20197;-87
2023/08/11 00:29:43;;;;;;;5.38;1.83;;;;;;;18.04;81.43;101419.84;5002117;28;20046;-88
2023/08/11 00:32:10;;;;;;;4.22;1.33;;;;;;;18.04;81.13;101419.84;5026917;28;20043;-85
2023/08/11 00:34:38;;;;;;;1.55;1.45;;;;;;;18.02;81.29;101411.94;5028445;28;20054;-87
2023/08/11 00:37:05;;;;;;;2.72;1.15;;;;;;;18.01;80.94;101418.16;4998413;28;20138;-87
2023/08/11 00:39:32;;;;;;;2.35;1.65;;;;;;;17.99;81.52;101424.41;4999034;28;20041;-86
2023/08/11 00:42:00;;;;;;;3.67;1.63;;;;;;;17.97;81.99;101429.75;5028072;28;20046;-85
2023/08/11 00:44:27;;;;;;;2.22;1.30;;;;;;;17.97;81.96;101419.16;5005841;28;20057;-87
2023/08/11 00:46:54;;;;;;;4.40;1.35;;;;;;;17.96;81.86;101425.38;5008710;28;20067;-89
2023/08/11 00:49:20;;;;;;;1.63;1.52;;;;;;;17.94;81.92;101421.00;5042456;28;20348;-86
2023/08/11 00:51:48;;;;;;;8.30;2.17;;;;;;;17.93;82.15;101419.31;5031354;28;20041;-87
2023/08/11 00:54:16;;;;;;;2.17;1.80;;;;;;;17.86;82.50;101418.56;5016280;28;20038;-87
2023/08/11 00:56:45;;;;;;;4.47;1.20;;;;;;;17.88;82.40;101414.09;5007591;28;20078;-87
2023/08/11 00:59:16;;;;;;;6.15;1.40;;;;;;;17.88;82.27;101413.22;5011945;28;20045;-86
2023/08/11 01:01:44;;;;;;;2.65;1.10;;;;;;;17.86;82.32;101416.78;4995512;28;20554;-88
2023/08/11 01:04:14;;;;;;;2.03;1.52;;;;;;;17.87;82.09;101420.28;5004590;28;20133;-89
2023/08/11 01:07:19;;;;;;;1.33;1.20;;;;;;;17.86;82.41;101416.78;5011109;28;20042;-89
2023/08/11 01:10:15;;;;;;;;;;;;;;;17.88;82.53;101413.22;5002178;28;20076;-87
2023/08/11 01:13:20;;;;;;;3.15;1.17;;;;;;;17.85;82.55;101406.25;5015302;28;19928;-87
2023/08/11 01:15:57;;;;;;;1.42;1.15;;;;;;;17.83;82.28;101405.41;5007723;28;20045;-86
2023/08/11 01:18:25;;;;;;;4.63;1.80;;;;;;;17.81;82.42;101401.94;5006833;28;20052;-86
2023/08/11 01:21:00;;;;;;;3.90;1.20;;;;;;;17.77;82.86;101397.59;5025928;28;20145;-86
2023/08/11 01:23:27;;;;;;;6.20;1.13;;;;;;;17.75;82.72;101402.94;5019659;28;20053;-86
2023/08/11 01:25:54;;;;;;;3.65;1.75;;;;;;;17.75;82.94;101400.31;5013266;28;20066;-88
2023/08/11 01:28:21;;;;;;;4.13;1.40;;;;;;;17.75;83.40;101402.94;5011206;28;20037;-86
2023/08/11 01:30:49;;;;;;;2.60;1.00;;;;;;;17.75;83.54;101402.09;5032418;28;20044;-87
2023/08/11 01:33:16;;;;;;;4.05;1.83;;;;;;;17.72;83.81;101400.41;5014300;28;20381;-86
2023/08/11 01:35:43;;;;;;;4.20;1.05;;;;;;;17.70;84.31;101399.56;4992825;28;20057;-87
2023/08/11 01:38:10;;;;;;;5.28;1.73;;;;;;;17.67;84.40;101397.00;4994695;28;20037;-86
2023/08/11 01:40:38;;;;;;;3.72;1.23;;;;;;;17.67;84.79;101397.84;5009793;28;20462;-87
2023/08/11 01:43:07;;;;;;;4.15;1.75;;;;;;;17.67;84.68;101391.72;5021717;28;20077;-87
2023/08/11 01:45:33;;;;;;;1.83;1.00;;;;;;;17.68;84.77;101390.81;5007318;28;20046;-86
2023/08/11 01:48:02;;;;;;;2.60;1.13;;;;;;;17.69;84.97;101395.16;5007411;28;20057;-86
2023/08/11 01:50:29;;;;;;;2.25;1.75;;;;;;;17.66;85.16;101396.16;5025338;28;20103;-88
2023/08/11 01:52:57;;;;;;;4.20;2.03;;;;;;;17.64;85.23;101391.81;4994255;28;20054;-85
2023/08/11 01:55:24;;;;;;;5.05;1.65;;;;;;;17.62;85.30;101383.88;5014075;28;20437;-86
2023/08/11 01:57:54;;;;;;;4.75;1.20;;;;;;;17.61;85.18;101387.47;5008746;28;20096;-86
2023/08/11 02:00:22;;;;;;;6.05;1.52;;;;;;;17.61;85.78;101392.75;5009193;28;20383;-85
2023/08/11 02:02:49;;;;;;;2.35;1.30;;;;;;;17.60;85.28;101385.72;5015311;28;20018;-88
2023/08/11 02:05:16;;;;;;;9.73;1.50;;;;;;;17.57;85.77;101384.91;5044589;28;20042;-87
2023/08/11 02:07:52;;;;;;;2.30;1.45;;;;;;;17.56;85.98;101384.06;5040587;28;20160;-89
2023/08/11 02:10:19;;;;;;;5.32;1.70;;;;;;;17.55;85.94;101392.03;5014690;28;20038;-88
2023/08/11 02:12:51;;;;;;;3.90;1.75;;;;;;;17.50;86.20;101387.72;5007695;28;20049;-86
2023/08/11 02:15:21;;;;;;;2.20;1.70;;;;;;;17.48;86.23;101383.38;5024579;28;20077;-87
2023/08/11 02:17:50;;;;;;;2.25;1.73;;;;;;;17.48;86.80;101378.97;5026339;28;20041;-88
2023/08/11 02:20:21;;;;;;;4.93;1.40;;;;;;;17.44;86.88;101376.44;5005768;28;20125;-86
2023/08/11 02:22:52;;;;;;;0.98;0.90;;;;;;;17.45;86.77;101379.03;5012983;28;20140;-88
2023/08/11 02:25:19;;;;;;;3.03;1.05;;;;;;;17.48;86.74;101370.13;5012753;28;20077;-87
2023/08/11 02:27:46;;;;;;;2.47;1.73;;;;;;;17.49;86.83;101371.88;4996097;28;20061;-85
2023/08/11 02:30:14;;;;;;;6.97;1.40;;;;;;;17.47;87.20;101371.94;5007688;28;20128;-85
2023/08/11 02:32:42;;;;;;;5.13;1.25;;;;;;;17.44;87.05;101363.19;5002616;28;20120;-85
2023/08/11 02:35:12;;;;;;;5.90;1.73;;;;;;;17.41;87.42;101358.84;5004190;28;20498;-86
2023/08/11 02:37:40;;;;;;;2.90;1.00;;;;;;;17.38;87.67;101366.00;4992663;28;20049;-85
2023/08/11 02:40:09;;;;;;;4.88;1.08;;;;;;;17.37;88.10;101359.84;4997442;28;20851;-86
2023/08/11 02:42:48;;;;;;;4.00;1.27;;;;;;;17.38;88.82;101366.00;5003858;28;20045;-87
2023/08/11 02:45:15;;;;;;;4.32;1.48;;;;;;;17.31;89.20;101360.88;5017269;28;20132;-86
2023/08/11 02:47:42;;;;;;;5.45;1.67;;;;;;;17.33;89.53;101366.13;4988952;28;20046;-87
2023/08/11 02:50:10;;;;;;;3.03;1.38;;;;;;;17.31;89.55;101368.81;5006320;28;20124;-87
2023/08/11 02:52:41;;;;;;;3.80;1.48;;;;;;;17.27;89.89;101358.34;4992561;28;20049;-87
2023/08/11 02:55:13;;;;;;;10.38;2.22;;;;;;;17.25;90.18;101368.09;5009231;28;20042;-87
2023/08/11 02:57:40;;;;;;;3.05;1.67;;;;;;;17.21;90.26;101364.66;4993897;28;20052;-86
2023/08/11 03:00:12;;;;;;;7.65;1.60;;;;;;;17.16;90.59;101367.41;5018111;28;20208;-87
2023/08/11 03:02:45;;;;;;;3.20;1.52;;;;;;;17.14;90.87;101352.50;5002969;28;20057;-87
2023/08/11 03:05:14;;;;;;;5.22;1.83;;;;;;;17.14;90.97;101352.50;4985150;28;20050;-87
2023/08/11 03:07:43;;;;;;;3.65;1.70;;;;;;;17.12;91.10;101355.19;5008846;28;20052;-87
2023/08/11 03:10:13;;;;;;;7.70;1.75;;;;;;;17.11;91.26;101356.06;5026189;28;20108;-87
2023/08/11 03:12:40;;;;;;;4.72;1.65;;;;;;;17.13;91.09;101358.69;4994959;28;20049;-87
2023/08/11 03:15:11;;;;;;;2.28;1.30;;;;;;;17.12;91.42;101362.25;4987665;28;20144;-87
2023/08/11 03:17:38;;;;;;;1.50;1.40;;;;;;;17.09;91.47;101357.91;5003069;28;20046;-88
2023/08/11 03:20:10;;;;;;;5.85;1.55;;;;;;;17.08;91.52;101361.47;4988852;28;20050;-87
2023/08/11 03:22:42;;;;;;;6.05;1.77;;;;;;;17.09;91.52;101359.66;5003347;28;20046;-88
2023/08/11 03:25:11;;;;;;;3.47;0.93;;;;;;;17.06;91.44;101357.13;5024346;28;20720;-88
2023/08/11 03:27:42;;;;;;;2.75;1.50;;;;;;;17.04;91.61;101354.50;4990967;28;20120;-86
2023/08/11 03:30:13;;;;;;;3.03;1.33;;;;;;;16.97;92.23;101355.56;5005414;28;20705;-87
2023/08/11 03:32:41;;;;;;;1.48;1.23;;;;;;;16.93;92.25;101356.53;5023023;28;20137;-87
2023/08/11 03:35:09;;;;;;;6.22;2.00;;;;;;;16.90;92.76;101360.13;4989575;28;20519;-87
2023/08/11 03:37:36;;;;;;;2.08;1.05;;;;;;;16.94;92.67;101363.56;4995699;28;20096;-85
2023/08/11 03:40:06;;;;;;;3.03;1.65;;;;;;;16.98;92.71;101365.22;5007024;28;20096;-86
2023/08/11 03:42:36;;;;;;;2.58;1.10;;;;;;;17.00;92.57;101361.66;5006786;28;20042;-85
2023/08/11 03:45:05;;;;;;;3.13;1.23;;;;;;;17.01;92.45;101366.03;5010732;28;20074;-87
2023/08/11 03:47:35;;;;;;;2.78;1.48;;;;;;;17.01;92.62;101373.09;5029444;28;20443;-86
2023/08/11 03:50:02;;;;;;;4.38;1.48;;;;;;;16.98;92.37;101370.53;5007033;28;20049;-86
2023/08/11 03:52:29;;;;;;;2.42;1.75;;;;;;;16.97;92.86;101366.13;5004661;28;20042;-84
2023/08/11 03:54:58;;;;;;;0.95;0.70;;;;;;;16.95;92.57;101365.31;5003626;28;20038;-87
2023/08/11 03:57:25;;;;;;;3.05;1.50;;;;;;;16.94;92.52;101361.78;5013278;28;20379;-84
2023/08/11 03:59:53;;;;;;;8.77;1.70;;;;;;;16.86;92.71;101361.94;5011808;28;20048;-86
2023/08/11 04:02:21;;;;;;;8.57;1.92;;;;;;;16.75;93.40;101361.34;5014080;28;20030;-86
2023/08/11 04:04:48;;;;;;;3.05;1.25;;;;;;;16.59;94.29;101363.44;5001386;28;20046;-86
2023/08/11 04:07:18;;;;;;;8.00;2.08;;;;;;;16.45;95.13;101369.06;5013082;28;20138;-85
2023/08/11 04:09:46;;;;;;;8.25;2.17;;;;;;;16.30;95.86;101369.38;4998007;28;20112;-86
2023/08/11 04:12:13;;;;;;;3.63;1.85;;;;;;;16.21;96.69;101376.59;5011758;28;20060;-86
2023/08/11 04:14:42;;;;;;;7.07;2.25;;;;;;;16.15;97.24;101376.75;5006764;28;20107;-89
2023/08/11 04:17:12;;;;;;;6.07;2.53;;;;;;;16.12;97.22;101378.56;4969378;28;20073;-87
2023/08/11 04:19:39;;;;;;;3.10;1.80;;;;;;;16.06;97.96;101373.41;4990317;28;20046;-86
2023/08/11 04:22:06;;;;;;;3.35;1.63;;;;;;;16.01;98.13;101378.78;5007610;28;20089;-87
2023/08/11 04:24:42;;;;;;;4.10;1.60;;;;;;;15.96;98.94;101381.50;5011209;28;20045;-87
2023/08/11 04:27:10;;;;;;;5.65;2.00;;;;;;;15.93;98.60;101380.69;5018385;28;20087;-88
2023/08/11 04:29:36;;;;;;;5.97;1.52;;;;;;;15.88;99.02;101376.38;5046999;28;20040;-89
2023/08/11 04:32:07;;;;;;;5.75;1.70;;;;;;;15.82;99.23;101380.91;5025547;28;20073;-87
2023/08/11 04:34:34;;;;;;;5.85;1.75;;;;;;;15.77;100.00;101373.03;5029094;28;20454;-88
2023/08/11 04:37:04;;;;;;;3.83;1.70;;;;;;;15.74;99.82;101374.88;5015224;28;20109;-89
2023/08/11 04:39:36;;;;;;;4.07;2.05;;;;;;;15.67;100.00;101374.09;5024831;28;20514;-88
2023/08/11 04:42:04;;;;;;;2.28;1.88;;;;;;;15.64;100.00;101376.81;5000188;28;20041;-88
2023/08/11 04:44:31;;;;;;;5.82;2.08;;;;;;;15.61;100.00;101374.25;5005968;28;20163;-86
2023/08/11 04:46:59;;;;;;;2.38;1.92;;;;;;;15.57;100.00;101372.56;5013890;28;20046;-88
2023/08/11 04:49:26;;;;;;;2.67;1.83;;;;;;;15.55;100.00;101373.44;5005266;28;20045;-88
2023/08/11 04:51:55;;;;;;;2.40;1.70;;;;;;;15.55;100.00;101367.28;4986982;28;20619;-86
2023/08/11 04:54:26;;;;;;;4.57;1.85;;;;;;;15.55;100.00;101375.19;5009278;28;20042;-88
2023/08/11 04:56:53;;;;;;;2.30;2.20;;;;;;;15.54;100.00;101376.97;5031734;28;20030;-89
2023/08/11 04:59:20;;;;;;;4.55;2.45;;;;;;;15.57;100.00;101376.06;5022601;28;20027;-90
2023/08/11 05:01:48;;;;;;;4.60;2.22;;;;;;;15.59;100.00;101376.91;5003139;28;20488;-87
2023/08/11 05:04:15;;;;;;;3.97;1.88;;;;;;;15.61;100.00;101374.25;4978617;28;20087;-86
2023/08/11 05:06:46;;;;;;;2.80;1.20;;;;;;;15.62;100.00;101375.94;5005926;28;20050;-87
2023/08/11 05:09:17;;;;;;;7.38;2.13;;;;;;;15.65;100.00;101370.63;4993881;28;20050;-88
2023/08/11 05:11:47;;;;;;;3.67;2.22;;;;;;;15.70;100.00;101382.84;5002543;28;20053;-88
2023/08/11 05:14:15;;;;;;;3.80;2.08;;;;;;;15.73;100.00;101379.28;4993116;28;20050;-86
2023/08/11 05:16:42;;;;;;;4.22;1.55;;;;;;;15.74;100.00;101382.81;4994205;28;20049;-89
2023/08/11 05:21:56;;;;;;;4.95;1.95;;;;;;;15.83;100.00;101390.56;4993130;28;20395;-87
2023/08/11 05:27:14;;;;;;;3.20;2.35;;;;;;;15.88;99.77;101386.09;4984611;28;20124;-91
2023/08/11 05:29:48;;;;;;;2.22;1.73;;;;;;;15.93;99.25;101392.16;4992936;28;20120;-89
2023/08/11 05:32:17;;;;;;;1.70;1.35;;;;;;;16.00;98.86;101387.59;4983138;28;20056;-89
2023/08/11 05:34:44;;;;;;;4.72;3.35;;;;;;;16.05;98.45;101388.38;4986301;28;20119;-88
2023/08/11 05:37:21;;;;;;;3.17;1.33;;;;;;;16.08;97.98;101383.03;4987297;28;20147;-86
2023/08/11 05:39:52;;;;;;;1.15;1.02;;;;;;;16.13;97.57;101378.53;4991038;28;20132;-87
2023/08/11 05:42:23;;;;;;;3.45;1.92;;;;;;;16.20;97.97;101380.16;4976261;28;20046;-85
2023/08/11 05:44:53;;;;;;;3.53;2.08;;;;;;;16.25;97.35;101380.03;4969979;28;20056;-88
2023/08/11 05:47:23;;;;;;;4.30;1.40;;;;;;;16.29;97.27;101380.84;4981240;28;20049;-88
2023/08/11 05:49:59;;;;;;;3.28;2.00;;;;;;;16.32;96.84;101386.06;4987616;28;20057;-87
2023/08/11 05:52:25;;;;;;;7.00;1.90;;;;;;;16.37;96.39;101376.25;4990765;28;20042;-87
2023/08/11 05:54:55;;;;;;;4.13;2.10;;;;;;;16.42;96.52;101382.31;4987123;28;20144;-87
2023/08/11 05:57:29;;;;;;;7.85;1.98;;;;;;;16.45;96.07;101384.03;4995599;28;20094;-87
2023/08/11 05:59:59;;;;;;;1.92;1.70;;;;;;;16.48;96.06;101383.97;4998345;28;20085;-86
2023/08/11 06:02:25;;;;;;;1.67;1.50;;;;;;;16.53;96.03;101388.25;4975469;28;20099;-85
2023/08/11 06:04:55;;;;;;;7.18;2.10;;;;;;;16.61;95.56;101388.09;4987025;28;20100;-85
2023/08/11 06:07:24;;;;;;;4.93;2.03;;;;;;;16.68;95.04;101383.53;4992931;28;20042;-85
2023/08/11 06:09:57;;;;;;;5.63;1.95;;;;;;;16.74;95.00;101386.03;4994831;28;20057;-86
2023/08/11 06:12:26;;;;;;;1.88;1.75;;;;;;;16.81;94.73;101389.41;4995949;28;20041;-86
2023/08/11 06:14:53;;;;;;;3.95;1.73;;;;;;;16.87;94.46;101389.28;5009003;28;20046;-88
2023/08/11 06:17:24;;;;;;;2.83;1.58;;;;;;;16.96;94.05;101398.78;4994206;28;20037;-87
2023/08/11 06:22:32;;;;;;;2.53;1.45;;;;;;;17.10;93.82;101386.06;5014517;28;20116;-87
2023/08/11 06:24:59;;;;;;;7.30;1.70;;;;;;;17.16;93.08;101383.28;4993310;28;20081;-86
2023/08/11 06:27:27;;;;;;;2.80;1.60;;;;;;;17.22;92.72;101381.41;5015020;28;20037;-86
2023/08/11 06:29:53;;;;;;;2.05;1.55;;;;;;;17.30;92.33;101380.31;5011589;28;20141;-86
2023/08/11 06:32:31;;;;;;;1.45;1.25;;;;;;;17.36;92.00;101374.88;4998528;28;20133;-86
2023/08/11 06:35:03;;;;;;;2.95;1.42;;;;;;;17.43;92.05;101382.63;5026072;28;20478;-88
2023/08/11 06:37:32;;;;;;;2.58;1.30;;;;;;;17.52;91.57;101383.28;5012822;28;20076;-87
2023/08/11 06:39:59;;;;;;;8.65;1.60;;;;;;;17.59;91.69;101376.03;5010994;28;20037;-87
2023/08/11 06:42:28;;;;;;;4.05;1.45;;;;;;;17.65;91.15;101380.28;5005441;28;20041;-87
2023/08/11 06:45:01;;;;;;;5.82;1.13;;;;;;;17.74;90.96;101379.16;5009726;28;20045;-87
2023/08/11 06:47:29;;;;;;;4.60;2.15;;;;;;;17.79;90.72;101380.78;5018636;28;20482;-86
2023/08/11 06:49:56;;;;;;;3.05;1.27;;;;;;;17.86;90.66;101385.00;5023205;28;20073;-86
2023/08/11 06:52:22;;;;;;;1.50;1.35;;;;;;;17.97;90.26;101386.50;5033822;28;20061;-86
2023/08/11 06:54:52;;;;;;;7.30;1.60;;;;;;;18.05;90.03;101387.16;5046945;28;20114;-89
2023/08/11 06:57:20;;;;;;;4.45;1.20;;;;;;;18.17;89.27;101384.16;5024961;28;20049;-88
2023/08/11 06:59:49;;;;;;;3.83;1.20;;;;;;;18.30;88.75;101387.34;5010320;28;20494;-88
2023/08/11 07:02:20;;;;;;;3.95;1.38;;;;;;;18.48;88.09;101385.88;5009394;28;20053;-87
2023/08/11 07:04:55;;;;;;;7.70;2.08;;;;;;;18.85;87.01;101373.25;5027469;28;20038;-85
2023/08/11 07:07:23;;;;;;;3.70;1.40;;;;;;;19.33;85.13;101377.91;5032291;28;20045;-88
2023/08/11 07:09:52;;;;;;;5.35;1.85;;;;;;;19.88;82.29;101387.56;5018507;28;20067;-86
2023/08/11 07:12:22;;;;;;;3.13;1.80;;;;;;;20.52;80.16;101393.16;5011121;28;20100;-87
2023/08/11 07:14:50;;;;;;;3.33;2.33;;;;;;;21.11;77.67;101397.06;5028649;28;20050;-86
2023/08/11 07:17:19;;;;;;;6.43;1.30;;;;;;;21.66;75.18;101395.66;5015426;28;20080;-87
2023/08/11 07:19:48;;;;;;;1.80;1.67;;;;;;;22.13;74.05;101398.00;5010317;28;20120;-86
2023/08/11 07:22:17;;;;;;;3.78;1.15;;;;;;;22.71;71.66;101396.22;5009862;28;20773;-86
2023/08/11 07:24:44;;;;;;;39.25;9.77;;;;;;;23.12;70.26;101391.50;5010707;28;20061;-85
2023/08/11 07:27:24;;;;;;;3.35;1.42;;;;;;;23.34;68.11;101393.16;4993067;28;20061;-84
2023/08/11 07:29:54;;;;;;;1.05;1.02;;;;;;;23.69;66.51;101387.78;5015167;28;20050;-86
2023/08/11 07:32:23;;;;;;;2.10;1.33;;;;;;;24.05;65.30;101388.59;5013847;28;20041;-87
2023/08/11 07:34:54;;;;;;;1.38;1.02;;;;;;;24.44;61.97;101390.03;4982214;28;20137;-88
2023/08/11 07:37:20;;;;;;;4.90;1.17;;;;;;;24.80;60.93;101388.94;5026642;28;20246;-85
2023/08/11 07:39:47;;;;;;;2.70;0.98;;;;;;;25.06;60.24;101384.75;5011328;28;20085;-85
2023/08/11 07:42:14;;;;;;;1.98;0.77;;;;;;;25.47;58.14;101387.78;5001386;28;20509;-87
2023/08/11 07:44:43;;;;;;;1.52;1.35;;;;;;;25.87;56.59;101390.69;5010800;28;20481;-86
2023/08/11 07:47:10;;;;;;;4.47;1.00;;;;;;;26.04;56.12;101387.84;5026849;28;20045;-85
2023/08/11 07:49:39;;;;;;;1.50;0.88;;;;;;;26.59;54.26;101387.97;5001105;28;20049;-83
2023/08/11 07:52:14;;;;;;;1.88;0.88;;;;;;;26.89;51.86;101389.63;5012060;28;20034;-88
2023/08/11 07:54:41;;;;;;;1.25;0.98;;;;;;;27.22;50.14;101397.25;4990571;28;20053;-85
2023/08/11 07:57:12;;;;;;;2.05;1.13;;;;;;;27.45;46.77;101391.31;5018162;28;20485;-85
2023/08/11 07:59:38;;;;;;;2.47;0.73;;;;;;;27.40;47.51;101386.22;4988951;28;20104;-85
2023/08/11 08:02:05;;;;;;;2.30;0.77;;;;;;;27.66;46.86;101394.34;5009876;28;20042;-84
2023/08/11 08:04:32;;;;;;;0.52;0.52;;;;;;;27.72;45.10;101396.59;5032046;28;20046;-84
2023/08/11 08:06:59;;;;;;;0.80;0.40;;;;;;;27.73;44.50;101399.19;5042389;28;20049;-86
2023/08/11 08:09:29;;;;;;;4.47;0.70;;;;;;;27.95;43.13;101399.50;5023055;28;20046;-84
2023/08/11 08:12:07;;;;;;;1.55;0.70;;;;;;;27.94;44.44;101387.88;5014847;28;20096;-85
2023/08/11 08:14:37;;;;;;;0.88;0.65;;;;;;;28.39;43.42;101390.97;4991337;28;20041;-89
2023/08/11 08:17:04;;;;;;;7.95;0.95;;;;;;;28.98;42.34;101389.34;4993341;28;20382;-84
2023/08/11 08:19:31;;;;;;;0.60;0.40;;;;;;;29.27;40.35;101389.00;4998864;28;20057;-87
2023/08/11 08:21:57;;;;;;;2.20;0.85;;;;;;;29.28;41.07;101387.16;5002874;28;20042;-84
2023/08/11 08:24:24;;;;;;;0.77;0.52;;;;;;;29.66;40.58;101394.09;5028778;28;20034;-86
2023/08/11 08:26:51;;;;;;;2.20;0.63;;;;;;;30.18;38.99;101395.38;5030929;28;20049;-86
2023/08/11 08:29:18;;;;;;;2.38;0.55;;;;;;;30.39;37.31;101397.34;5028493;28;20049;-85
2023/08/11 08:31:44;;;;;;;0.52;0.52;;;;;;;30.67;37.17;101390.53;5014285;28;20409;-86
2023/08/11 08:34:14;;;;;;;0.77;0.40;;;;;;;31.06;36.68;101392.75;5014143;28;20049;-83
2023/08/11 08:36:41;;;;;;;0.52;0.50;;;;;;;31.61;35.63;101394.41;5014656;28;20058;-84
2023/08/11 08:39:08;;;;;;;1.77;0.40;;;;;;;31.65;34.26;101390.47;5009210;28;20092;-85
2023/08/11 08:41:39;;;;;;;0.47;0.30;;;;;;;31.62;34.58;101396.19;5013227;28;20151;-84
2023/08/11 08:44:09;;;;;;;0.40;0.20;;;;;;;31.83;34.11;101391.56;5021856;28;20080;-86
2023/08/11 08:46:36;;;;;;;2.35;0.30;;;;;;;31.71;34.39;101384.53;5014880;28;20116;-85
2023/08/11 08:49:27;;;;;;;1.20;0.30;;;;;;;32.30;32.37;101390.22;4995832;28;20057;-86
2023/08/11 08:51:56;;;;;;;0.70;0.30;;;;;;;32.52;32.62;101383.72;5013480;28;20073;-83
2023/08/11 08:54:24;;;;;;;0.43;0.40;;;;;;;32.83;32.08;101389.06;5000309;28;20038;-85
2023/08/11 08:56:55;;;;;;;0.95;0.15;;;;;;;33.11;31.32;101383.75;5018060;28;20085;-87
2023/08/11 08:59:23;;;;;;;0.98;0.10;;;;;;;33.21;30.96;101384.63;5016535;28;20530;-84
2023/08/11 09:01:51;;;;;;;1.13;0.60;;;;;;;33.29;30.26;101378.50;5013743;28;20042;-84
2023/08/11 09:04:20;;;;;;;0.22;0.22;;;;;;;33.35;30.92;101382.47;5029598;28;20057;-84
2023/08/11 09:06:47;;;;;;;0.70;0.30;;;;;;;33.20;31.04;101372.03;5016878;28;20112;-85
2023/08/11 09:09:15;;;;;;;0.30;0.20;;;;;;;33.96;29.57;101373.91;5027765;28;20046;-84
2023/08/11 09:11:43;;;;;;;1.67;0.30;;;;;;;33.82;29.89;101378.94;5000482;28;20060;-85
2023/08/11 09:14:10;;;;;;;0.40;0.20;;;;;;;33.94;30.07;101378.63;5029514;28;20042;-85
2023/08/11 09:16:39;;;;;;;0.20;0.20;;;;;;;33.86;29.45;101377.63;5009405;28;20124;-85
2023/08/11 09:19:09;;;;;;;0.63;0.30;;;;;;;34.30;29.18;101378.72;5029748;28;20093;-85
2023/08/11 09:21:36;;;;;;;2.08;0.50;;;;;;;34.53;29.01;101372.03;5028009;28;20052;-83
2023/08/11 09:24:03;;;;;;;0.60;0.20;;;;;;;34.57;29.15;101374.28;5007763;28;20038;-84
2023/08/11 09:26:30;;;;;;;1.60;0.22;;;;;;;35.17;28.45;101370.06;5013826;28;20110;-85
2023/08/11 09:28:56;;;;;;;2.30;0.68;;;;;;;35.47;27.86;101359.75;5016326;28;20069;-84
2023/08/11 09:31:24;;;;;;;1.30;0.40;;;;;;;35.57;27.65;101365.13;5002687;28;20049;-84
2023/08/11 09:33:52;;;;;;;1.13;0.43;;;;;;;35.39;28.06;101359.72;5021407;28;20080;-84
2023/08/11 09:36:20;;;;;;;1.83;1.73;;;;;;;34.56;28.54;101359.00;5013584;28;20684;-89
2023/08/11 09:38:49;;;;;;;1.77;0.40;;;;;;;35.13;28.46;101359.69;5013000;28;20088;-85
2023/08/11 09:41:17;;;;;;;0.65;0.45;;;;;;;36.19;27.78;101353.16;5013583;28;20449;-87
2023/08/11 09:43:50;;;;;;;0.95;0.30;;;;;;;35.53;26.56;101356.41;4995805;28;20156;-84
2023/08/11 09:46:17;;;;;;;0.45;0.45;;;;;;;35.07;27.96;101361.16;5025835;28;20048;-83
2023/08/11 09:48:44;;;;;;;2.03;0.45;;;;;;;35.46;27.15;101363.50;5011028;28;20048;-85
2023/08/11 09:51:11;;;;;;;0.40;0.40;;;;;;;35.53;27.10;101361.84;5005552;28;20108;-84
2023/08/11 09:53:41;;;;;;;1.55;0.47;;;;;;;36.11;25.90;101364.88;5024632;28;20049;-84
2023/08/11 09:56:11;;;;;;;1.08;0.25;;;;;;;36.37;25.86;101363.97;5002328;28;20070;-85
2023/08/11 09:58:40;;;;;;;0.40;0.40;;;;;;;36.61;25.78;101363.16;4996349;28;20096;-84
2023/08/11 10:01:09;;;;;;;0.65;0.60;;;;;;;36.41;25.84;101365.31;5013027;28;20109;-86
2023/08/11 10:03:43;;;;;;;0.32;0.32;;;;;;;36.96;25.45;101368.50;5017375;28;20494;-84
2023/08/11 10:06:17;;;;;;;2.45;0.45;;;;;;;36.96;25.57;101360.31;5017610;28;20114;-85
2023/08/11 10:08:46;;;;;;;0.75;0.75;;;;;;;36.35;26.34;101360.53;5028975;28;20050;-84
2023/08/11 10:11:13;;;;;;;0.82;0.50;;;;;;;37.02;25.86;101363.19;5013939;28;20041;-86
2023/08/11 10:13:43;;;;;;;2.15;0.50;;;;;;;37.58;24.87;101359.72;5021082;28;20625;-85
2023/08/11 10:16:12;;;;;;;0.65;0.50;;;;;;;37.54;25.56;101359.22;5014780;28;20107;-85
2023/08/11 10:18:42;;;;;;;2.83;0.60;;;;;;;37.08;25.39;101361.69;5016778;28;20070;-84
2023/08/11 10:21:10;;;;;;;1.23;0.57;;;;;;;37.52;25.09;101358.56;5009462;28;20498;-86
2023/08/11 10:23:37;;;;;;;1.08;0.73;;;;;;;36.84;25.71;101357.06;5011702;28;20470;-88
2023/08/11 10:26:04;;;;;;;1.27;0.40;;;;;;;36.93;25.52;101353.31;5011423;28;20084;-89
2023/08/11 10:28:31;;;;;;;2.08;0.50;;;;;;;37.77;25.20;101352.16;5014340;28;20045;-85
2023/08/11 10:31:01;;;;;;;4.60;1.35;;;;;;;38.27;24.29;101347.38;4997413;28;20053;-86
2023/08/11 10:33:32;;;;;;;2.10;0.55;;;;;;;38.28;24.56;101344.44;4981854;28;20092;-85
2023/08/11 10:36:04;;;;;;;2.47;0.50;;;;;;;38.42;24.26;101351.00;5011128;28;20050;-85
2023/08/11 10:38:33;;;;;;;1.50;0.50;;;;;;;38.29;24.54;101354.38;5006149;28;20135;-84
2023/08/11 10:41:10;;;;;;;1.48;0.70;;;;;;;38.16;23.85;101354.91;5007046;28;20042;-84
2023/08/11 10:43:40;;;;;;;1.50;0.70;;;;;;;38.25;24.37;101344.75;5010499;28;20459;-85
2023/08/11 10:46:22;;;;;;;1.67;0.77;;;;;;;38.32;24.39;101343.06;5029808;28;20108;-83
2023/08/11 10:48:50;;;;;;;1.00;0.75;;;;;;;38.26;24.57;101345.66;5021173;28;20049;-84
2023/08/11 10:51:32;;;;;;;1.30;0.82;;;;;;;38.48;24.06;101342.09;5005961;28;20145;-88
2023/08/11 10:54:10;;;;;;;1.55;0.73;;;;;;;38.91;23.96;101341.63;5010669;28;20045;-85
2023/08/11 10:56:42;;;;;;;0.93;0.60;;;;;;;39.35;23.18;101334.56;5000920;28;20132;-82
2023/08/11 10:59:25;;;;;;;4.07;0.85;;;;;;;39.77;23.46;101332.19;5015112;28;20054;-86
2023/08/11 11:01:56;;;;;;;1.00;0.55;;;;;;;40.40;22.03;101329.78;5004713;28;20109;-82
2023/08/11 11:04:33;;;;;;;0.88;0.75;;;;;;;40.61;21.42;101326.25;5006860;28;20473;-85
2023/08/11 11:07:03;;;;;;;1.90;0.70;;;;;;;39.69;22.85;101325.78;5025730;28;20053;-87
2023/08/11 11:09:31;;;;;;;1.02;0.60;;;;;;;40.03;22.82;101323.44;5023503;28;20041;-88
2023/08/11 11:11:58;;;;;;;3.30;0.80;;;;;;;39.89;23.08;101327.06;5016803;28;20046;-85
2023/08/11 11:14:25;;;;;;;1.52;0.60;;;;;;;40.78;22.52;101321.31;5004246;28;20118;-84
2023/08/11 11:16:54;;;;;;;0.80;0.63;;;;;;;40.35;22.03;101315.78;5013943;28;20085;-85
2023/08/11 11:19:23;;;;;;;2.05;0.82;;;;;;;40.91;21.83;101314.22;5024484;28;20100;-88
2023/08/11 11:21:50;;;;;;;4.22;0.73;;;;;;;41.03;22.17;101309.94;5010782;28;20116;-82
2023/08/11 11:24:19;;;;;;;2.15;0.85;;;;;;;41.39;21.44;101313.53;5013043;28;20073;-88
2023/08/11 11:26:46;;;;;;;0.90;0.70;;;;;;;41.28;21.44;101312.19;5004603;28;20137;-86
2023/08/11 11:29:12;;;;;;;0.60;0.52;;;;;;;41.16;21.42;101296.28;4992051;28;20060;-86
2023/08/11 11:31:40;;;;;;;1.27;0.88;;;;;;;41.61;21.39;101309.63;5002914;28;20052;-85
2023/08/11 11:34:08;;;;;;;2.95;0.65;;;;;;;41.75;21.09;101310.56;5025274;28;20061;-89
2023/08/11 11:36:34;;;;;;;2.85;0.60;;;;;;;41.55;21.04;101304.97;5004086;28;20572;-84
2023/08/11 11:39:02;;;;;;;1.58;1.20;;;;;;;41.52;21.41;101299.03;5012926;28;20076;-88
2023/08/11 11:41:29;;;;;;;1.65;0.90;;;;;;;41.67;20.98;101308.00;5024289;28;20030;-88